Terminal Aerodrome Forecast
Issued by NWS

Home | Current Version | Previous Version | Text Only | Print | Product List | Glossary On
Versions: 1 2 3 4 5 6 7 8 9 10 11 12 13 14 15 16 17 18 19
424
FTUS42 TJSJ 010709 CCA
TAFISX
TAF COR
TISX 010709Z 0107/0206 VRB05KT P6SM -RA VCSH FEW025 SCT050
      TEMPO 0108/0112 4SM TSRA BKN025CB
     FM011800 13010KT P6SM -RA SCT030 SCT080 OVC100
     FM020000 07005KT P6SM VCSH FEW030 SCT100=

USA.gov is the U.S. government's official web portal to all federal, state and local government web resources and services.